createdAt,value
2022-08-09T00:00:59.048Z,15.40
2022-08-09T00:04:06.250Z,15.40
2022-08-09T00:06:23.295Z,15.30
2022-08-09T00:08:57.008Z,15.30
2022-08-09T00:12:02.876Z,15.20
2022-08-09T00:14:21.928Z,15.20
2022-08-09T00:19:33.941Z,15.10
2022-08-09T00:22:03.493Z,15.10
2022-08-09T00:24:32.917Z,15.10
2022-08-09T00:27:03.969Z,15.00
2022-08-09T00:30:10.021Z,15.00
2022-08-09T00:32:25.376Z,15.10
2022-08-09T00:34:53.810Z,15.10
2022-08-09T00:37:22.189Z,15.00
2022-08-09T00:40:13.128Z,15.00
2022-08-09T00:44:14.162Z,14.90
2022-08-09T00:45:30.519Z,14.40
2022-08-09T00:48:04.345Z,14.90
2022-08-09T00:53:10.582Z,14.90
2022-08-09T00:56:04.718Z,14.90
2022-08-09T00:58:34.449Z,14.80
2022-08-09T01:03:51.416Z,14.70
2022-08-09T01:06:54.381Z,14.70
2022-08-09T01:09:36.478Z,14.70
2022-08-09T01:12:16.440Z,14.70
2022-08-09T01:15:05.883Z,14.70
2022-08-09T01:17:47.184Z,14.80
2022-08-09T01:20:25.932Z,14.80
2022-08-09T01:24:02.744Z,14.80
2022-08-09T01:26:57.390Z,15.10
2022-08-09T01:32:29.783Z,14.80
2022-08-09T01:35:18.084Z,14.90
2022-08-09T01:38:09.316Z,13.20
2022-08-09T01:40:44.911Z,14.80
2022-08-09T01:43:24.357Z,14.90
2022-08-09T01:45:58.046Z,14.80
2022-08-09T01:48:31.429Z,15.10
2022-08-09T01:51:02.585Z,14.80
2022-08-09T01:56:13.096Z,14.80
2022-08-09T01:58:49.021Z,14.80
2022-08-09T02:01:20.013Z,14.90
2022-08-09T02:04:01.027Z,14.90
2022-08-09T02:06:58.434Z,14.90
2022-08-09T02:09:41.895Z,15.00
2022-08-09T02:12:21.188Z,15.10
2022-08-09T02:14:56.005Z,15.20
2022-08-09T02:17:59.457Z,16.70
2022-08-09T02:20:26.494Z,15.40
2022-08-09T02:23:09.836Z,15.40
2022-08-09T02:28:24.414Z,15.50
2022-08-09T02:31:05.781Z,15.50
2022-08-09T02:34:06.463Z,15.40
2022-08-09T02:36:34.371Z,15.40
2022-08-09T02:39:14.436Z,15.40
2022-08-09T02:41:56.014Z,15.30
2022-08-09T02:47:08.320Z,15.20
2022-08-09T02:49:46.946Z,15.30
2022-08-09T02:52:35.850Z,15.30
2022-08-09T02:55:20.102Z,15.30
2022-08-09T02:57:59.772Z,15.30
2022-08-09T03:00:57.692Z,15.20
2022-08-09T03:04:05.771Z,15.50
2022-08-09T03:06:22.718Z,15.20
2022-08-09T03:12:04.877Z,15.20
2022-08-09T03:14:14.594Z,15.60
2022-08-09T03:16:48.137Z,14.60
2022-08-09T03:19:52.471Z,15.10
2022-08-09T03:22:12.106Z,15.10
2022-08-09T03:27:45.218Z,15.00
2022-08-09T03:33:12.953Z,14.80
2022-08-09T03:36:13.035Z,14.70
2022-08-09T03:38:42.108Z,15.20
2022-08-09T03:41:15.192Z,14.50
2022-08-09T03:46:33.513Z,14.40
2022-08-09T03:49:08.480Z,14.40
2022-08-09T03:51:58.410Z,14.30
2022-08-09T03:54:34.523Z,14.30
2022-08-09T03:57:18.008Z,14.20
2022-08-09T04:02:28.342Z,14.20
2022-08-09T04:05:00.773Z,14.20
2022-08-09T04:07:33.738Z,14.60
2022-08-09T04:10:28.473Z,14.20
2022-08-09T04:16:17.205Z,14.10
2022-08-09T04:18:22.091Z,14.20
2022-08-09T04:20:51.335Z,13.70
2022-08-09T04:23:24.712Z,14.30
2022-08-09T04:25:54.703Z,15.20
2022-08-09T04:28:33.195Z,14.40
2022-08-09T04:31:09.333Z,14.40
2022-08-09T04:33:51.981Z,14.50
2022-08-09T04:36:27.468Z,14.50
2022-08-09T04:39:00.768Z,14.60
2022-08-09T04:41:32.121Z,14.70
2022-08-09T04:44:06.664Z,14.70
2022-08-09T04:46:58.862Z,14.70
2022-08-09T04:52:26.133Z,14.80
2022-08-09T04:55:04.162Z,14.90
2022-08-09T04:57:54.409Z,14.90
2022-08-09T05:00:24.564Z,15.10
2022-08-09T05:02:53.230Z,15.10
2022-08-09T05:05:51.879Z,15.20
2022-08-09T05:13:14.796Z,15.50
2022-08-09T05:15:48.163Z,15.60
2022-08-09T05:21:10.082Z,15.90
2022-08-09T05:26:45.344Z,16.00
2022-08-09T05:31:57.206Z,16.30
2022-08-09T05:34:31.358Z,16.40
2022-08-09T05:37:06.199Z,16.60
2022-08-09T05:39:43.302Z,16.80
2022-08-09T05:42:21.606Z,16.90
2022-08-09T05:44:52.193Z,17.10
2022-08-09T05:50:25.968Z,17.50
2022-08-09T05:52:41.971Z,17.60
2022-08-09T05:55:20.929Z,17.70
2022-08-09T05:57:56.741Z,17.80
2022-08-09T06:00:28.605Z,18.10
2022-08-09T06:02:58.729Z,18.30
2022-08-09T06:05:50.499Z,18.50
2022-08-09T06:08:19.331Z,18.90
2022-08-09T06:10:52.954Z,19.30
2022-08-09T06:13:24.202Z,19.60
2022-08-09T06:18:24.902Z,20.30
2022-08-09T06:20:57.650Z,20.50
2022-08-09T06:23:58.514Z,20.70
2022-08-09T06:26:20.805Z,21.00
2022-08-09T06:29:00.612Z,21.20
2022-08-09T06:31:39.862Z,21.40
2022-08-09T06:34:23.480Z,21.60
2022-08-09T06:36:58.917Z,21.80
2022-08-09T06:39:57.752Z,21.90
2022-08-09T06:42:19.860Z,22.00
2022-08-09T06:44:54.028Z,22.10
2022-08-09T06:47:23.756Z,22.30
2022-08-09T06:50:14.221Z,22.40
2022-08-09T06:52:47.070Z,22.60
2022-08-09T06:55:17.160Z,22.80
2022-08-09T06:58:02.643Z,22.90
2022-08-09T07:00:54.686Z,23.00
2022-08-09T07:03:27.938Z,23.20
2022-08-09T07:06:03.816Z,23.40
2022-08-09T07:08:35.284Z,23.40
2022-08-09T07:11:06.943Z,23.30
2022-08-09T07:16:41.533Z,23.70
2022-08-09T07:21:55.428Z,24.10
2022-08-09T07:24:31.977Z,24.40
2022-08-09T07:27:10.921Z,24.50
2022-08-09T07:29:58.404Z,24.50
2022-08-09T07:32:33.652Z,24.50
2022-08-09T07:35:07.978Z,24.60
2022-08-09T07:40:17.320Z,24.90
2022-08-09T07:42:55.520Z,24.80
2022-08-09T07:45:39.244Z,25.10
2022-08-09T07:48:25.678Z,25.30
2022-08-09T07:51:09.246Z,25.30
2022-08-09T07:54:05.982Z,25.50
2022-08-09T07:56:44.667Z,25.70
2022-08-09T07:59:34.572Z,25.60
2022-08-09T08:02:07.440Z,25.70
2022-08-09T08:04:39.009Z,25.80
2022-08-09T08:07:27.052Z,25.90
2022-08-09T08:10:08.958Z,26.10
2022-08-09T08:12:45.055Z,26.30
2022-08-09T08:15:16.705Z,26.50
2022-08-09T08:17:53.349Z,27.10
2022-08-09T08:20:29.337Z,26.50
2022-08-09T08:23:16.324Z,26.60
2022-08-09T08:25:48.208Z,26.80
2022-08-09T08:28:32.374Z,26.70
2022-08-09T08:31:10.482Z,26.60
2022-08-09T08:33:53.353Z,26.80
2022-08-09T08:36:29.640Z,27.00
2022-08-09T08:39:00.334Z,27.40
2022-08-09T08:41:41.998Z,27.40
2022-08-09T08:44:27.010Z,26.90
2022-08-09T08:47:05.212Z,27.50
2022-08-09T08:49:48.132Z,27.60
2022-08-09T08:55:11.547Z,27.80
2022-08-09T08:57:44.059Z,28.00
2022-08-09T09:00:29.958Z,28.20
2022-08-09T09:03:11.325Z,28.20
2022-08-09T09:05:58.437Z,28.20
2022-08-09T09:08:37.993Z,28.70
2022-08-09T09:11:13.792Z,28.70
2022-08-09T09:13:56.642Z,28.90
2022-08-09T09:16:34.227Z,28.80
2022-08-09T09:22:07.662Z,29.20
2022-08-09T09:24:43.186Z,29.40
2022-08-09T09:28:03.126Z,29.30
2022-08-09T09:30:37.329Z,29.20
2022-08-09T09:33:15.931Z,29.20
2022-08-09T09:36:01.329Z,29.40
2022-08-09T09:38:49.566Z,29.70
2022-08-09T09:41:48.960Z,29.60
2022-08-09T09:44:27.916Z,29.70
2022-08-09T09:47:09.403Z,29.60
2022-08-09T09:50:13.717Z,30.00
2022-08-09T09:55:27.713Z,30.20
2022-08-09T09:58:16.331Z,30.30
2022-08-09T10:00:55.527Z,30.70
2022-08-09T10:03:43.231Z,30.40
2022-08-09T10:06:13.233Z,30.90
2022-08-09T10:08:55.123Z,31.10
2022-08-09T10:11:59.525Z,30.90
2022-08-09T10:14:33.199Z,31.30
2022-08-09T10:17:39.610Z,31.40
2022-08-09T10:20:02.666Z,31.40
2022-08-09T10:22:36.754Z,31.50
2022-08-09T10:25:11.619Z,31.80
2022-08-09T10:27:45.079Z,31.80
2022-08-09T10:34:05.202Z,32.00
2022-08-09T10:36:11.476Z,31.80
2022-08-09T10:38:56.801Z,32.10
2022-08-09T10:41:28.821Z,32.10
2022-08-09T10:44:01.769Z,31.90
2022-08-09T10:47:04.045Z,32.00
2022-08-09T10:49:59.448Z,31.90
2022-08-09T10:53:01.427Z,32.30
2022-08-09T10:55:35.821Z,32.50
2022-08-09T10:58:33.532Z,32.40
2022-08-09T11:03:03.033Z,32.00
2022-08-09T11:04:29.717Z,32.00
2022-08-09T11:07:56.984Z,32.00
2022-08-09T11:11:00.774Z,32.20
2022-08-09T11:16:37.042Z,32.30
2022-08-09T11:19:10.109Z,32.00
2022-08-09T11:22:16.909Z,31.80
2022-08-09T11:25:09.835Z,32.10
2022-08-09T11:28:03.972Z,32.30
2022-08-09T11:30:37.626Z,32.10
2022-08-09T11:33:25.455Z,31.80
2022-08-09T11:35:57.974Z,31.50
2022-08-09T11:38:32.926Z,31.60
2022-08-09T11:41:06.472Z,31.90
2022-08-09T11:43:42.817Z,32.70
2022-08-09T11:46:11.763Z,32.70
2022-08-09T11:48:50.506Z,33.30
2022-08-09T11:51:37.944Z,33.10
2022-08-09T11:54:27.754Z,32.80
2022-08-09T11:57:47.524Z,33.10
2022-08-09T12:05:42.189Z,32.90
2022-08-09T12:08:19.829Z,32.70
2022-08-09T12:10:54.919Z,32.40
2022-08-09T12:14:09.123Z,32.40
2022-08-09T12:16:37.138Z,32.50
2022-08-09T12:19:09.628Z,32.80
2022-08-09T12:21:48.456Z,33.00
2022-08-09T12:24:25.397Z,33.20
2022-08-09T12:28:59.751Z,33.10
2022-08-09T12:30:01.541Z,33.00
2022-08-09T12:32:48.439Z,33.30
2022-08-09T12:35:19.233Z,33.40
2022-08-09T12:37:52.212Z,33.80
2022-08-09T12:42:58.143Z,33.30
2022-08-09T12:45:34.592Z,33.70
2022-08-09T12:48:20.170Z,33.70
2022-08-09T12:51:03.992Z,33.10
2022-08-09T12:53:38.779Z,33.40
2022-08-09T12:56:43.493Z,33.60
2022-08-09T12:59:10.901Z,33.80
2022-08-09T13:01:49.027Z,33.50
2022-08-09T13:04:37.196Z,33.40
2022-08-09T13:07:19.968Z,32.80
2022-08-09T13:10:03.847Z,32.70
2022-08-09T13:12:39.961Z,33.00
2022-08-09T13:15:24.857Z,33.00
2022-08-09T13:18:05.676Z,33.00
2022-08-09T13:20:50.142Z,33.10
2022-08-09T13:24:16.311Z,33.00
2022-08-09T13:26:36.928Z,33.10
2022-08-09T13:29:10.561Z,33.20
2022-08-09T13:32:19.458Z,32.80
2022-08-09T13:37:51.387Z,32.60
2022-08-09T13:46:42.625Z,33.30
2022-08-09T13:48:21.325Z,33.70
2022-08-09T13:50:49.512Z,33.90
2022-08-09T13:53:17.996Z,34.10
2022-08-09T13:55:47.932Z,34.00
2022-08-09T13:58:16.187Z,34.00
2022-08-09T14:04:01.727Z,33.90
2022-08-09T14:06:19.273Z,33.70
2022-08-09T14:08:54.561Z,32.90
2022-08-09T14:11:23.694Z,34.10
2022-08-09T14:14:23.155Z,34.00
2022-08-09T14:16:40.382Z,33.90
2022-08-09T14:19:10.364Z,33.90
2022-08-09T14:24:18.673Z,33.20
2022-08-09T14:26:51.170Z,33.30
2022-08-09T14:30:03.981Z,33.20
2022-08-09T14:32:11.404Z,33.60
2022-08-09T14:34:45.723Z,34.00
2022-08-09T14:39:48.292Z,33.30
2022-08-09T14:42:31.102Z,33.00
2022-08-09T14:46:45.882Z,32.90
2022-08-09T14:47:57.257Z,32.50
2022-08-09T14:50:31.653Z,32.90
2022-08-09T14:53:01.677Z,32.70
2022-08-09T14:55:32.783Z,32.80
2022-08-09T14:58:03.749Z,32.60
2022-08-09T15:00:36.202Z,32.70
2022-08-09T15:03:07.306Z,32.50
2022-08-09T15:05:39.868Z,32.40
2022-08-09T15:08:19.100Z,32.20
2022-08-09T15:16:19.599Z,32.70
2022-08-09T15:18:49.554Z,32.20
2022-08-09T15:21:58.056Z,31.90
2022-08-09T15:24:12.838Z,28.30
2022-08-09T15:30:58.761Z,31.80
2022-08-09T15:32:04.790Z,31.40
2022-08-09T15:40:19.969Z,29.30
2022-08-09T15:42:50.859Z,29.40
2022-08-09T15:45:29.332Z,29.60
2022-08-09T15:53:17.922Z,30.20
2022-08-09T15:56:28.566Z,30.50
2022-08-09T15:58:50.021Z,30.70
2022-08-09T16:01:19.670Z,31.20
2022-08-09T16:03:50.995Z,31.20
2022-08-09T16:06:34.829Z,30.90
2022-08-09T16:09:06.091Z,30.30
2022-08-09T16:11:34.584Z,29.40
2022-08-09T16:14:07.867Z,28.70
2022-08-09T16:16:41.981Z,28.20
2022-08-09T16:19:14.592Z,28.20
2022-08-09T16:21:48.571Z,28.30
2022-08-09T16:24:32.927Z,28.80
2022-08-09T16:29:36.894Z,28.70
2022-08-09T16:32:19.329Z,28.40
2022-08-09T16:34:58.137Z,28.40
2022-08-09T16:37:54.095Z,28.40
2022-08-09T16:43:07.378Z,27.90
2022-08-09T16:45:41.682Z,27.40
2022-08-09T16:48:38.673Z,27.30
2022-08-09T16:54:02.268Z,27.50
2022-08-09T16:56:31.582Z,27.70
2022-08-09T16:59:01.033Z,27.80
2022-08-09T17:01:33.828Z,28.00
2022-08-09T17:08:41.302Z,28.10
2022-08-09T17:12:12.993Z,28.20
2022-08-09T17:14:47.936Z,27.80
2022-08-09T17:17:26.744Z,28.00
2022-08-09T17:20:29.075Z,28.00
2022-08-09T17:22:52.137Z,27.90
2022-08-09T17:25:23.370Z,27.70
2022-08-09T17:30:26.497Z,27.30
2022-08-09T17:33:01.428Z,27.30
2022-08-09T17:35:41.211Z,27.00
2022-08-09T17:38:30.764Z,26.60
2022-08-09T17:41:00.069Z,26.20
2022-08-09T17:43:34.618Z,26.00
2022-08-09T17:46:09.502Z,25.90
2022-08-09T17:51:18.087Z,25.80
2022-08-09T17:53:53.645Z,25.80
2022-08-09T18:10:05.048Z,25.10
2022-08-09T18:12:40.735Z,25.10
2022-08-09T18:16:05.705Z,24.70
2022-08-09T19:04:24.903Z,21.60
2022-08-09T19:40:03.284Z,20.80
2022-08-09T19:42:19.519Z,20.70
2022-08-09T19:44:51.149Z,20.60
2022-08-09T19:47:23.356Z,20.50
2022-08-09T19:50:08.235Z,16.80
2022-08-09T19:52:49.472Z,20.50
2022-08-09T19:55:30.480Z,19.90
2022-08-09T19:58:15.913Z,20.50
2022-08-09T20:00:47.296Z,20.40
2022-08-09T20:04:27.901Z,20.40
2022-08-09T20:06:22.346Z,20.30
2022-08-09T20:08:56.718Z,20.40
2022-08-09T20:30:17.968Z,18.70
2022-08-09T20:38:23.454Z,20.20
2022-08-09T20:56:38.191Z,19.70
2022-08-09T21:47:10.807Z,18.90
2022-08-09T21:49:50.955Z,18.70
2022-08-09T21:55:04.197Z,18.60
2022-08-09T22:03:12.501Z,18.60
2022-08-09T22:21:45.337Z,18.10
2022-08-09T22:24:17.006Z,18.00
2022-08-09T22:26:51.457Z,17.90
2022-08-09T22:29:26.799Z,18.00
2022-08-09T22:32:02.630Z,17.90
2022-08-09T22:34:30.918Z,17.90
2022-08-09T22:37:00.939Z,17.80
2022-08-09T22:39:57.318Z,17.80
2022-08-09T22:42:22.595Z,17.70
2022-08-09T22:48:04.634Z,17.70
2022-08-09T22:48:15.524Z,17.60
2022-08-09T22:50:33.500Z,17.50
2022-08-09T22:53:03.897Z,17.60
2022-08-09T22:56:05.920Z,17.50
2022-08-09T22:58:32.888Z,17.50
2022-08-09T23:01:03.960Z,17.50
2022-08-09T23:04:05.305Z,17.50
2022-08-09T23:06:35.461Z,17.40
2022-08-09T23:09:06.974Z,17.40
2022-08-09T23:11:36.242Z,17.40
2022-08-09T23:14:10.217Z,16.60
2022-08-09T23:16:45.912Z,17.30
2022-08-09T23:19:15.651Z,17.30
2022-08-09T23:21:44.279Z,17.20
2022-08-09T23:26:41.998Z,17.10
2022-08-09T23:29:13.659Z,17.00
2022-08-09T23:31:42.658Z,17.00
2022-08-09T23:36:40.760Z,16.90
2022-08-09T23:44:06.625Z,16.70
2022-08-09T23:46:35.016Z,16.70
2022-08-09T23:49:03.464Z,13.60
2022-08-09T23:51:32.094Z,16.70
2022-08-09T23:54:03.066Z,16.70
2022-08-09T23:59:21.621Z,16.60
